sensor_id;sensor_type;location;lat;lon;timestamp;temperature;humidity
65985;HTU21D;52748;51.112;5.880;2023-05-07T00:00:47;20.55;89.05
65985;HTU21D;52748;51.112;5.880;2023-05-07T00:03:12;20.54;88.99
65985;HTU21D;52748;51.112;5.880;2023-05-07T00:05:39;20.53;89.21
65985;HTU21D;52748;51.112;5.880;2023-05-07T00:08:05;20.51;89.29
65985;HTU21D;52748;51.112;5.880;2023-05-07T00:10:31;20.54;89.06
65985;HTU21D;52748;51.112;5.880;2023-05-07T00:12:57;20.51;89.04
65985;HTU21D;52748;51.112;5.880;2023-05-07T00:15:23;20.51;88.96
65985;HTU21D;52748;51.112;5.880;2023-05-07T00:17:49;20.53;88.64
65985;HTU21D;52748;51.112;5.880;2023-05-07T00:20:15;20.54;88.41
65985;HTU21D;52748;51.112;5.880;2023-05-07T00:22:41;20.51;88.67
65985;HTU21D;52748;51.112;5.880;2023-05-07T00:25:07;20.49;88.80
65985;HTU21D;52748;51.112;5.880;2023-05-07T00:27:33;20.48;88.81
65985;HTU21D;52748;51.112;5.880;2023-05-07T00:30:02;20.50;88.62
65985;HTU21D;52748;51.112;5.880;2023-05-07T00:32:31;20.50;88.43
65985;HTU21D;52748;51.112;5.880;2023-05-07T00:34:57;20.48;88.49
65985;HTU21D;52748;51.112;5.880;2023-05-07T00:37:23;20.48;88.53
65985;HTU21D;52748;51.112;5.880;2023-05-07T00:39:49;20.48;88.49
65985;HTU21D;52748;51.112;5.880;2023-05-07T00:42:15;20.48;88.66
65985;HTU21D;52748;51.112;5.880;2023-05-07T00:44:41;20.50;88.36
65985;HTU21D;52748;51.112;5.880;2023-05-07T00:47:07;20.49;88.02
65985;HTU21D;52748;51.112;5.880;2023-05-07T00:49:43;20.50;88.02
65985;HTU21D;52748;51.112;5.880;2023-05-07T00:52:13;20.46;88.14
65985;HTU21D;52748;51.112;5.880;2023-05-07T00:54:40;20.45;88.28
65985;HTU21D;52748;51.112;5.880;2023-05-07T00:57:07;20.47;87.96
65985;HTU21D;52748;51.112;5.880;2023-05-07T00:59:35;20.45;88.11
65985;HTU21D;52748;51.112;5.880;2023-05-07T01:02:01;20.45;88.18
65985;HTU21D;52748;51.112;5.880;2023-05-07T01:04:32;20.44;88.22
65985;HTU21D;52748;51.112;5.880;2023-05-07T01:07:01;20.44;88.16
65985;HTU21D;52748;51.112;5.880;2023-05-07T01:09:28;20.44;88.10
65985;HTU21D;52748;51.112;5.880;2023-05-07T01:11:58;20.43;88.19
65985;HTU21D;52748;51.112;5.880;2023-05-07T01:14:25;20.43;88.25
65985;HTU21D;52748;51.112;5.880;2023-05-07T01:16:52;20.44;88.41
65985;HTU21D;52748;51.112;5.880;2023-05-07T01:19:21;20.43;88.27
65985;HTU21D;52748;51.112;5.880;2023-05-07T01:21:48;20.44;88.12
65985;HTU21D;52748;51.112;5.880;2023-05-07T01:24:18;20.45;88.05
65985;HTU21D;52748;51.112;5.880;2023-05-07T01:26:44;20.46;87.57
65985;HTU21D;52748;51.112;5.880;2023-05-07T01:29:12;20.48;87.32
65985;HTU21D;52748;51.112;5.880;2023-05-07T01:31:42;20.48;87.07
65985;HTU21D;52748;51.112;5.880;2023-05-07T01:34:12;20.50;86.86
65985;HTU21D;52748;51.112;5.880;2023-05-07T01:36:39;20.51;86.60
65985;HTU21D;52748;51.112;5.880;2023-05-07T01:39:08;20.51;86.40
65985;HTU21D;52748;51.112;5.880;2023-05-07T01:41:35;20.51;86.62
65985;HTU21D;52748;51.112;5.880;2023-05-07T01:44:01;20.47;86.83
65985;HTU21D;52748;51.112;5.880;2023-05-07T01:46:30;20.45;86.97
65985;HTU21D;52748;51.112;5.880;2023-05-07T01:48:57;20.45;86.99
65985;HTU21D;52748;51.112;5.880;2023-05-07T01:51:25;20.45;87.06
65985;HTU21D;52748;51.112;5.880;2023-05-07T01:53:53;20.43;87.15
65985;HTU21D;52748;51.112;5.880;2023-05-07T01:56:20;20.44;87.09
65985;HTU21D;52748;51.112;5.880;2023-05-07T01:58:47;20.44;87.12
65985;HTU21D;52748;51.112;5.880;2023-05-07T02:01:14;20.45;86.74
65985;HTU21D;52748;51.112;5.880;2023-05-07T02:03:40;20.44;86.80
65985;HTU21D;52748;51.112;5.880;2023-05-07T02:06:13;20.43;86.82
65985;HTU21D;52748;51.112;5.880;2023-05-07T02:08:39;20.42;86.84
65985;HTU21D;52748;51.112;5.880;2023-05-07T02:11:06;20.42;86.85
65985;HTU21D;52748;51.112;5.880;2023-05-07T02:13:35;20.42;86.93
65985;HTU21D;52748;51.112;5.880;2023-05-07T02:16:02;20.43;86.88
65985;HTU21D;52748;51.112;5.880;2023-05-07T02:18:31;20.44;86.61
65985;HTU21D;52748;51.112;5.880;2023-05-07T02:20:58;20.43;86.64
65985;HTU21D;52748;51.112;5.880;2023-05-07T02:23:23;20.41;86.70
65985;HTU21D;52748;51.112;5.880;2023-05-07T02:25:50;20.40;86.73
65985;HTU21D;52748;51.112;5.880;2023-05-07T02:28:17;20.37;86.74
65985;HTU21D;52748;51.112;5.880;2023-05-07T02:31:03;20.40;86.74
65985;HTU21D;52748;51.112;5.880;2023-05-07T02:33:30;20.39;86.76
65985;HTU21D;52748;51.112;5.880;2023-05-07T02:35:56;20.39;86.74
65985;HTU21D;52748;51.112;5.880;2023-05-07T02:38:23;20.40;86.65
65985;HTU21D;52748;51.112;5.880;2023-05-07T02:40:49;20.39;86.66
65985;HTU21D;52748;51.112;5.880;2023-05-07T02:43:15;20.37;86.65
65985;HTU21D;52748;51.112;5.880;2023-05-07T02:45:44;20.36;86.58
65985;HTU21D;52748;51.112;5.880;2023-05-07T02:48:14;20.36;86.60
65985;HTU21D;52748;51.112;5.880;2023-05-07T02:50:39;20.41;86.29
65985;HTU21D;52748;51.112;5.880;2023-05-07T02:53:05;20.43;85.95
65985;HTU21D;52748;51.112;5.880;2023-05-07T02:55:32;20.42;85.77
65985;HTU21D;52748;51.112;5.880;2023-05-07T02:57:58;20.41;85.91
65985;HTU21D;52748;51.112;5.880;2023-05-07T03:00:24;20.40;86.03
65985;HTU21D;52748;51.112;5.880;2023-05-07T03:03:09;20.43;85.81
65985;HTU21D;52748;51.112;5.880;2023-05-07T03:05:36;20.42;85.56
65985;HTU21D;52748;51.112;5.880;2023-05-07T03:08:02;20.40;85.72
65985;HTU21D;52748;51.112;5.880;2023-05-07T03:10:30;20.39;85.80
65985;HTU21D;52748;51.112;5.880;2023-05-07T03:12:56;20.39;85.86
65985;HTU21D;52748;51.112;5.880;2023-05-07T03:15:22;20.41;85.48
65985;HTU21D;52748;51.112;5.880;2023-05-07T03:17:48;20.41;85.44
65985;HTU21D;52748;51.112;5.880;2023-05-07T03:20:16;20.40;85.57
65985;HTU21D;52748;51.112;5.880;2023-05-07T03:22:45;20.37;85.64
65985;HTU21D;52748;51.112;5.880;2023-05-07T03:25:11;20.37;85.55
65985;HTU21D;52748;51.112;5.880;2023-05-07T03:27:40;20.37;85.64
65985;HTU21D;52748;51.112;5.880;2023-05-07T03:30:08;20.35;85.68
65985;HTU21D;52748;51.112;5.880;2023-05-07T03:32:34;20.35;85.79
65985;HTU21D;52748;51.112;5.880;2023-05-07T03:35:07;20.35;85.75
65985;HTU21D;52748;51.112;5.880;2023-05-07T03:37:33;20.35;85.67
65985;HTU21D;52748;51.112;5.880;2023-05-07T03:39:59;20.33;85.67
65985;HTU21D;52748;51.112;5.880;2023-05-07T03:42:26;20.35;85.59
65985;HTU21D;52748;51.112;5.880;2023-05-07T03:44:52;20.34;85.58
65985;HTU21D;52748;51.112;5.880;2023-05-07T03:47:18;20.37;85.35
65985;HTU21D;52748;51.112;5.880;2023-05-07T03:49:46;20.39;85.09
65985;HTU21D;52748;51.112;5.880;2023-05-07T03:52:12;20.37;85.02
65985;HTU21D;52748;51.112;5.880;2023-05-07T03:54:38;20.36;85.10
65985;HTU21D;52748;51.112;5.880;2023-05-07T03:57:04;20.36;85.32
65985;HTU21D;52748;51.112;5.880;2023-05-07T03:59:30;20.37;85.04
65985;HTU21D;52748;51.112;5.880;2023-05-07T04:01:59;20.40;84.69
65985;HTU21D;52748;51.112;5.880;2023-05-07T04:04:28;20.41;84.45
65985;HTU21D;52748;51.112;5.880;2023-05-07T04:07:02;20.42;84.36
65985;HTU21D;52748;51.112;5.880;2023-05-07T04:09:30;20.43;84.21
65985;HTU21D;52748;51.112;5.880;2023-05-07T04:11:56;20.43;83.95
65985;HTU21D;52748;51.112;5.880;2023-05-07T04:14:22;20.43;84.26
65985;HTU21D;52748;51.112;5.880;2023-05-07T04:16:48;20.43;84.19
65985;HTU21D;52748;51.112;5.880;2023-05-07T04:19:14;20.43;84.09
65985;HTU21D;52748;51.112;5.880;2023-05-07T04:21:40;20.43;84.00
65985;HTU21D;52748;51.112;5.880;2023-05-07T04:24:06;20.44;84.01
65985;HTU21D;52748;51.112;5.880;2023-05-07T04:26:32;20.42;84.00
65985;HTU21D;52748;51.112;5.880;2023-05-07T04:28:59;20.41;84.28
65985;HTU21D;52748;51.112;5.880;2023-05-07T04:31:33;20.42;84.09
65985;HTU21D;52748;51.112;5.880;2023-05-07T04:33:59;20.40;84.13
65985;HTU21D;52748;51.112;5.880;2023-05-07T04:36:25;20.37;84.32
65985;HTU21D;52748;51.112;5.880;2023-05-07T04:38:58;20.35;84.50
65985;HTU21D;52748;51.112;5.880;2023-05-07T04:41:24;20.34;84.63
65985;HTU21D;52748;51.112;5.880;2023-05-07T04:43:50;20.33;84.66
65985;HTU21D;52748;51.112;5.880;2023-05-07T04:46:19;20.32;84.69
65985;HTU21D;52748;51.112;5.880;2023-05-07T04:48:47;20.32;84.77
65985;HTU21D;52748;51.112;5.880;2023-05-07T04:51:13;20.36;84.41
65985;HTU21D;52748;51.112;5.880;2023-05-07T04:53:39;20.36;84.12
65985;HTU21D;52748;51.112;5.880;2023-05-07T04:56:06;20.37;83.87
65985;HTU21D;52748;51.112;5.880;2023-05-07T04:58:38;20.35;84.03
65985;HTU21D;52748;51.112;5.880;2023-05-07T05:01:04;20.34;84.12
65985;HTU21D;52748;51.112;5.880;2023-05-07T05:03:31;20.35;84.23
65985;HTU21D;52748;51.112;5.880;2023-05-07T05:05:57;20.33;84.23
65985;HTU21D;52748;51.112;5.880;2023-05-07T05:08:26;20.32;84.32
65985;HTU21D;52748;51.112;5.880;2023-05-07T05:10:52;20.32;84.33
65985;HTU21D;52748;51.112;5.880;2023-05-07T05:13:18;20.32;84.43
65985;HTU21D;52748;51.112;5.880;2023-05-07T05:15:44;20.32;84.51
65985;HTU21D;52748;51.112;5.880;2023-05-07T05:18:11;20.32;84.52
65985;HTU21D;52748;51.112;5.880;2023-05-07T05:20:39;20.31;84.48
65985;HTU21D;52748;51.112;5.880;2023-05-07T05:23:05;20.31;84.39
65985;HTU21D;52748;51.112;5.880;2023-05-07T05:25:32;20.31;84.42
65985;HTU21D;52748;51.112;5.880;2023-05-07T05:27:59;20.31;84.41
65985;HTU21D;52748;51.112;5.880;2023-05-07T05:30:25;20.31;84.42
65985;HTU21D;52748;51.112;5.880;2023-05-07T05:32:51;20.32;84.33
65985;HTU21D;52748;51.112;5.880;2023-05-07T05:35:17;20.33;84.11
65985;HTU21D;52748;51.112;5.880;2023-05-07T05:37:43;20.36;83.85
65985;HTU21D;52748;51.112;5.880;2023-05-07T05:40:10;20.36;83.58
65985;HTU21D;52748;51.112;5.880;2023-05-07T05:42:36;20.37;83.53
65985;HTU21D;52748;51.112;5.880;2023-05-07T05:45:02;20.35;83.68
65985;HTU21D;52748;51.112;5.880;2023-05-07T05:47:31;20.36;83.71
65985;HTU21D;52748;51.112;5.880;2023-05-07T05:49:57;20.37;83.40
65985;HTU21D;52748;51.112;5.880;2023-05-07T05:52:23;20.35;83.55
65985;HTU21D;52748;51.112;5.880;2023-05-07T05:54:53;20.36;83.62
65985;HTU21D;52748;51.112;5.880;2023-05-07T05:57:19;20.37;83.45
65985;HTU21D;52748;51.112;5.880;2023-05-07T05:59:46;20.39;83.34
65985;HTU21D;52748;51.112;5.880;2023-05-07T06:02:13;20.41;83.32
65985;HTU21D;52748;51.112;5.880;2023-05-07T06:04:39;20.40;83.20
65985;HTU21D;52748;51.112;5.880;2023-05-07T06:07:05;20.41;83.11
65985;HTU21D;52748;51.112;5.880;2023-05-07T06:09:34;20.41;83.20
65985;HTU21D;52748;51.112;5.880;2023-05-07T06:12:03;20.40;82.97
65985;HTU21D;52748;51.112;5.880;2023-05-07T06:14:30;20.41;82.79
65985;HTU21D;52748;51.112;5.880;2023-05-07T06:16:56;20.37;83.03
65985;HTU21D;52748;51.112;5.880;2023-05-07T06:19:22;20.36;83.29
65985;HTU21D;52748;51.112;5.880;2023-05-07T06:21:51;20.34;83.34
65985;HTU21D;52748;51.112;5.880;2023-05-07T06:24:16;20.34;83.49
65985;HTU21D;52748;51.112;5.880;2023-05-07T06:26:42;20.31;83.65
65985;HTU21D;52748;51.112;5.880;2023-05-07T06:29:11;20.33;83.71
65985;HTU21D;52748;51.112;5.880;2023-05-07T06:31:39;20.34;83.45
65985;HTU21D;52748;51.112;5.880;2023-05-07T06:34:07;20.35;83.24
65985;HTU21D;52748;51.112;5.880;2023-05-07T06:36:37;20.32;83.47
65985;HTU21D;52748;51.112;5.880;2023-05-07T06:39:12;20.34;83.71
65985;HTU21D;52748;51.112;5.880;2023-05-07T06:41:37;20.34;83.60
65985;HTU21D;52748;51.112;5.880;2023-05-07T06:44:08;20.34;83.80
65985;HTU21D;52748;51.112;5.880;2023-05-07T06:46:42;20.33;84.67
65985;HTU21D;52748;51.112;5.880;2023-05-07T06:49:08;20.33;86.74
65985;HTU21D;52748;51.112;5.880;2023-05-07T06:51:34;20.28;87.64
65985;HTU21D;52748;51.112;5.880;2023-05-07T06:54:02;20.24;87.77
65985;HTU21D;52748;51.112;5.880;2023-05-07T06:56:31;20.19;88.38
65985;HTU21D;52748;51.112;5.880;2023-05-07T06:58:57;20.18;89.47
65985;HTU21D;52748;51.112;5.880;2023-05-07T07:01:23;20.16;90.31
65985;HTU21D;52748;51.112;5.880;2023-05-07T07:03:49;20.14;90.98
65985;HTU21D;52748;51.112;5.880;2023-05-07T07:06:17;20.11;92.14
65985;HTU21D;52748;51.112;5.880;2023-05-07T07:08:43;20.07;92.43
65985;HTU21D;52748;51.112;5.880;2023-05-07T07:11:11;20.05;93.36
65985;HTU21D;52748;51.112;5.880;2023-05-07T07:13:37;20.02;93.35
65985;HTU21D;52748;51.112;5.880;2023-05-07T07:16:03;20.02;93.94
65985;HTU21D;52748;51.112;5.880;2023-05-07T07:18:29;20.02;94.94
65985;HTU21D;52748;51.112;5.880;2023-05-07T07:20:57;20.00;95.33
65985;HTU21D;52748;51.112;5.880;2023-05-07T07:23:23;20.01;95.09
65985;HTU21D;52748;51.112;5.880;2023-05-07T07:25:49;20.04;94.85
65985;HTU21D;52748;51.112;5.880;2023-05-07T07:28:15;20.05;94.67
65985;HTU21D;52748;51.112;5.880;2023-05-07T07:30:42;20.06;94.62
65985;HTU21D;52748;51.112;5.880;2023-05-07T07:33:09;20.04;95.00
65985;HTU21D;52748;51.112;5.880;2023-05-07T07:35:37;20.05;95.12
65985;HTU21D;52748;51.112;5.880;2023-05-07T07:38:04;20.06;95.78
65985;HTU21D;52748;51.112;5.880;2023-05-07T07:40:30;20.04;96.91
65985;HTU21D;52748;51.112;5.880;2023-05-07T07:42:57;20.05;97.12
65985;HTU21D;52748;51.112;5.880;2023-05-07T07:45:23;20.07;97.78
65985;HTU21D;52748;51.112;5.880;2023-05-07T07:47:50;20.11;96.92
65985;HTU21D;52748;51.112;5.880;2023-05-07T07:50:16;20.14;98.06
65985;HTU21D;52748;51.112;5.880;2023-05-07T07:52:42;20.15;98.34
65985;HTU21D;52748;51.112;5.880;2023-05-07T07:55:09;20.17;98.57
65985;HTU21D;52748;51.112;5.880;2023-05-07T07:57:36;20.19;98.21
65985;HTU21D;52748;51.112;5.880;2023-05-07T08:00:03;20.24;96.22
65985;HTU21D;52748;51.112;5.880;2023-05-07T08:02:31;20.26;95.20
65985;HTU21D;52748;51.112;5.880;2023-05-07T08:04:57;20.30;94.59
65985;HTU21D;52748;51.112;5.880;2023-05-07T08:07:23;20.33;94.72
65985;HTU21D;52748;51.112;5.880;2023-05-07T08:09:50;20.37;94.64
65985;HTU21D;52748;51.112;5.880;2023-05-07T08:12:20;20.39;94.49
65985;HTU21D;52748;51.112;5.880;2023-05-07T08:14:46;20.45;94.75
65985;HTU21D;52748;51.112;5.880;2023-05-07T08:17:12;20.49;92.80
65985;HTU21D;52748;51.112;5.880;2023-05-07T08:19:42;20.48;92.42
65985;HTU21D;52748;51.112;5.880;2023-05-07T08:22:11;20.51;93.20
65985;HTU21D;52748;51.112;5.880;2023-05-07T08:24:38;20.55;92.24
65985;HTU21D;52748;51.112;5.880;2023-05-07T08:27:04;20.59;91.25
65985;HTU21D;52748;51.112;5.880;2023-05-07T08:29:30;20.60;91.68
65985;HTU21D;52748;51.112;5.880;2023-05-07T08:31:56;20.60;92.98
65985;HTU21D;52748;51.112;5.880;2023-05-07T08:34:22;20.63;91.23
65985;HTU21D;52748;51.112;5.880;2023-05-07T08:36:52;20.64;92.02
65985;HTU21D;52748;51.112;5.880;2023-05-07T08:39:21;20.62;92.86
65985;HTU21D;52748;51.112;5.880;2023-05-07T08:41:57;20.63;93.04
65985;HTU21D;52748;51.112;5.880;2023-05-07T08:44:26;20.64;92.59
65985;HTU21D;52748;51.112;5.880;2023-05-07T08:46:56;20.63;91.89
65985;HTU21D;52748;51.112;5.880;2023-05-07T08:49:23;20.63;91.27
65985;HTU21D;52748;51.112;5.880;2023-05-07T08:51:50;20.65;90.44
65985;HTU21D;52748;51.112;5.880;2023-05-07T08:54:18;20.66;90.39
65985;HTU21D;52748;51.112;5.880;2023-05-07T08:56:46;20.69;89.38
65985;HTU21D;52748;51.112;5.880;2023-05-07T08:59:12;20.68;88.79
65985;HTU21D;52748;51.112;5.880;2023-05-07T09:01:39;20.65;88.64
65985;HTU21D;52748;51.112;5.880;2023-05-07T09:04:05;20.64;88.54
65985;HTU21D;52748;51.112;5.880;2023-05-07T09:06:33;20.62;88.51
65985;HTU21D;52748;51.112;5.880;2023-05-07T09:09:01;20.61;88.52
65985;HTU21D;52748;51.112;5.880;2023-05-07T09:11:29;20.59;88.44
65985;HTU21D;52748;51.112;5.880;2023-05-07T09:13:59;20.58;88.53
65985;HTU21D;52748;51.112;5.880;2023-05-07T09:16:29;20.59;88.49
65985;HTU21D;52748;51.112;5.880;2023-05-07T09:18:59;20.59;88.13
65985;HTU21D;52748;51.112;5.880;2023-05-07T09:21:26;20.57;88.22
65985;HTU21D;52748;51.112;5.880;2023-05-07T09:23:55;20.57;88.26
65985;HTU21D;52748;51.112;5.880;2023-05-07T09:26:26;20.57;88.30
65985;HTU21D;52748;51.112;5.880;2023-05-07T09:28:54;20.55;88.32
65985;HTU21D;52748;51.112;5.880;2023-05-07T09:31:20;20.54;88.22
65985;HTU21D;52748;51.112;5.880;2023-05-07T09:33:52;20.53;88.28
65985;HTU21D;52748;51.112;5.880;2023-05-07T09:36:19;20.53;88.15
65985;HTU21D;52748;51.112;5.880;2023-05-07T09:38:45;20.54;88.16
65985;HTU21D;52748;51.112;5.880;2023-05-07T09:41:12;20.56;87.77
65985;HTU21D;52748;51.112;5.880;2023-05-07T09:43:54;20.59;87.39
65985;HTU21D;52748;51.112;5.880;2023-05-07T09:46:29;20.59;87.20
65985;HTU21D;52748;51.112;5.880;2023-05-07T09:49:02;20.58;87.19
65985;HTU21D;52748;51.112;5.880;2023-05-07T09:54:37;20.55;87.59
65985;HTU21D;52748;51.112;5.880;2023-05-07T09:57:05;20.53;87.65
65985;HTU21D;52748;51.112;5.880;2023-05-07T09:59:34;20.55;87.44
65985;HTU21D;52748;51.112;5.880;2023-05-07T10:02:09;20.54;87.48
65985;HTU21D;52748;51.112;5.880;2023-05-07T10:04:46;20.53;87.56
65985;HTU21D;52748;51.112;5.880;2023-05-07T10:07:14;20.54;87.64
65985;HTU21D;52748;51.112;5.880;2023-05-07T10:09:42;20.57;87.38
65985;HTU21D;52748;51.112;5.880;2023-05-07T10:12:23;20.58;87.07
65985;HTU21D;52748;51.112;5.880;2023-05-07T10:14:50;20.56;86.91
65985;HTU21D;52748;51.112;5.880;2023-05-07T10:17:19;20.55;87.12
65985;HTU21D;52748;51.112;5.880;2023-05-07T10:19:47;20.54;87.30
65985;HTU21D;52748;51.112;5.880;2023-05-07T10:22:16;20.53;87.41
65985;HTU21D;52748;51.112;5.880;2023-05-07T10:24:48;20.51;87.54
65985;HTU21D;52748;51.112;5.880;2023-05-07T10:27:19;20.54;87.64
65985;HTU21D;52748;51.112;5.880;2023-05-07T10:32:45;20.51;87.66
65985;HTU21D;52748;51.112;5.880;2023-05-07T10:35:29;20.50;87.77
65985;HTU21D;52748;51.112;5.880;2023-05-07T10:37:59;20.51;87.50
65985;HTU21D;52748;51.112;5.880;2023-05-07T10:40:30;20.51;87.54
65985;HTU21D;52748;51.112;5.880;2023-05-07T10:43:02;20.51;87.44
65985;HTU21D;52748;51.112;5.880;2023-05-07T10:45:36;20.50;87.50
65985;HTU21D;52748;51.112;5.880;2023-05-07T10:48:13;20.53;87.34
65985;HTU21D;52748;51.112;5.880;2023-05-07T10:50:45;20.55;87.06
65985;HTU21D;52748;51.112;5.880;2023-05-07T10:55:51;20.53;86.99
65985;HTU21D;52748;51.112;5.880;2023-05-07T11:00:49;20.55;86.89
65985;HTU21D;52748;51.112;5.880;2023-05-07T11:03:27;20.54;86.80
65985;HTU21D;52748;51.112;5.880;2023-05-07T11:06:16;20.54;87.02
65985;HTU21D;52748;51.112;5.880;2023-05-07T11:08:58;20.56;86.72
65985;HTU21D;52748;51.112;5.880;2023-05-07T11:11:48;20.58;86.42
65985;HTU21D;52748;51.112;5.880;2023-05-07T11:14:55;20.57;86.36
65985;HTU21D;52748;51.112;5.880;2023-05-07T11:17:31;20.55;86.65
65985;HTU21D;52748;51.112;5.880;2023-05-07T11:20:03;20.54;86.99
65985;HTU21D;52748;51.112;5.880;2023-05-07T11:22:44;20.54;86.87
65985;HTU21D;52748;51.112;5.880;2023-05-07T11:25:33;20.54;86.87
65985;HTU21D;52748;51.112;5.880;2023-05-07T11:28:07;20.51;86.89
65985;HTU21D;52748;51.112;5.880;2023-05-07T11:30:37;20.53;86.83
65985;HTU21D;52748;51.112;5.880;2023-05-07T11:33:10;20.53;86.83
65985;HTU21D;52748;51.112;5.880;2023-05-07T11:35:37;20.50;86.76
65985;HTU21D;52748;51.112;5.880;2023-05-07T11:38:06;20.53;86.73
65985;HTU21D;52748;51.112;5.880;2023-05-07T11:40:34;20.55;86.35
65985;HTU21D;52748;51.112;5.880;2023-05-07T11:43:10;20.55;86.25
65985;HTU21D;52748;51.112;5.880;2023-05-07T11:45:36;20.55;86.30
65985;HTU21D;52748;51.112;5.880;2023-05-07T11:48:02;20.58;86.00
65985;HTU21D;52748;51.112;5.880;2023-05-07T11:50:28;20.59;85.67
65985;HTU21D;52748;51.112;5.880;2023-05-07T11:52:54;20.59;85.48
65985;HTU21D;52748;51.112;5.880;2023-05-07T11:55:20;20.60;85.34
65985;HTU21D;52748;51.112;5.880;2023-05-07T11:57:47;20.60;85.26
65985;HTU21D;52748;51.112;5.880;2023-05-07T12:00:16;20.62;85.09
65985;HTU21D;52748;51.112;5.880;2023-05-07T12:02:42;20.62;84.98
65985;HTU21D;52748;51.112;5.880;2023-05-07T12:05:08;20.61;84.83
65985;HTU21D;52748;51.112;5.880;2023-05-07T12:07:34;20.62;84.81
65985;HTU21D;52748;51.112;5.880;2023-05-07T12:10:04;20.61;84.51
65985;HTU21D;52748;51.112;5.880;2023-05-07T12:12:31;20.61;84.41
65985;HTU21D;52748;51.112;5.880;2023-05-07T12:14:56;20.60;84.55
65985;HTU21D;52748;51.112;5.880;2023-05-07T12:17:25;20.57;84.82
65985;HTU21D;52748;51.112;5.880;2023-05-07T12:19:50;20.56;84.98
65985;HTU21D;52748;51.112;5.880;2023-05-07T12:22:17;20.57;84.75
65985;HTU21D;52748;51.112;5.880;2023-05-07T12:24:47;20.56;84.51
65985;HTU21D;52748;51.112;5.880;2023-05-07T12:27:15;20.56;84.75
65985;HTU21D;52748;51.112;5.880;2023-05-07T12:29:47;20.55;84.95
65985;HTU21D;52748;51.112;5.880;2023-05-07T12:32:18;20.55;84.85
65985;HTU21D;52748;51.112;5.880;2023-05-07T12:34:44;20.53;84.99
65985;HTU21D;52748;51.112;5.880;2023-05-07T12:37:11;20.51;85.00
65985;HTU21D;52748;51.112;5.880;2023-05-07T12:39:44;20.51;85.06
65985;HTU21D;52748;51.112;5.880;2023-05-07T12:42:23;20.54;85.06
65985;HTU21D;52748;51.112;5.880;2023-05-07T12:44:51;20.55;84.68
65985;HTU21D;52748;51.112;5.880;2023-05-07T12:47:17;20.57;84.46
65985;HTU21D;52748;51.112;5.880;2023-05-07T12:49:43;20.57;84.48
65985;HTU21D;52748;51.112;5.880;2023-05-07T12:52:11;20.58;84.33
65985;HTU21D;52748;51.112;5.880;2023-05-07T12:54:38;20.59;84.07
65985;HTU21D;52748;51.112;5.880;2023-05-07T12:57:08;20.61;83.97
65985;HTU21D;52748;51.112;5.880;2023-05-07T12:59:39;20.61;83.94
65985;HTU21D;52748;51.112;5.880;2023-05-07T13:02:06;20.61;83.84
65985;HTU21D;52748;51.112;5.880;2023-05-07T13:04:32;20.61;83.79
65985;HTU21D;52748;51.112;5.880;2023-05-07T13:06:59;20.62;83.81
65985;HTU21D;52748;51.112;5.880;2023-05-07T13:09:25;20.62;83.72
65985;HTU21D;52748;51.112;5.880;2023-05-07T13:11:51;20.63;83.65
65985;HTU21D;52748;51.112;5.880;2023-05-07T13:14:17;20.60;83.90
65985;HTU21D;52748;51.112;5.880;2023-05-07T13:16:43;20.57;84.25
65985;HTU21D;52748;51.112;5.880;2023-05-07T13:19:09;20.58;84.30
65985;HTU21D;52748;51.112;5.880;2023-05-07T13:21:35;20.61;84.12
65985;HTU21D;52748;51.112;5.880;2023-05-07T13:24:00;20.59;83.99
65985;HTU21D;52748;51.112;5.880;2023-05-07T13:26:26;20.60;84.10
65985;HTU21D;52748;51.112;5.880;2023-05-07T13:28:53;20.60;84.09
65985;HTU21D;52748;51.112;5.880;2023-05-07T13:31:20;20.57;84.29
65985;HTU21D;52748;51.112;5.880;2023-05-07T13:33:46;20.58;84.45
65985;HTU21D;52748;51.112;5.880;2023-05-07T13:36:12;20.59;84.29
65985;HTU21D;52748;51.112;5.880;2023-05-07T13:38:39;20.59;84.26
65985;HTU21D;52748;51.112;5.880;2023-05-07T13:41:05;20.60;84.25
65985;HTU21D;52748;51.112;5.880;2023-05-07T13:43:31;20.60;84.19
65985;HTU21D;52748;51.112;5.880;2023-05-07T13:45:59;20.61;84.34
65985;HTU21D;52748;51.112;5.880;2023-05-07T13:48:28;20.61;84.16
65985;HTU21D;52748;51.112;5.880;2023-05-07T13:50:56;20.63;84.08
65985;HTU21D;52748;51.112;5.880;2023-05-07T13:53:22;20.61;84.06
65985;HTU21D;52748;51.112;5.880;2023-05-07T13:55:48;20.60;84.32
65985;HTU21D;52748;51.112;5.880;2023-05-07T13:58:14;20.59;84.45
65985;HTU21D;52748;51.112;5.880;2023-05-07T14:00:40;20.59;84.47
65985;HTU21D;52748;51.112;5.880;2023-05-07T14:03:06;20.59;84.43
65985;HTU21D;52748;51.112;5.880;2023-05-07T14:05:32;20.59;84.45
65985;HTU21D;52748;51.112;5.880;2023-05-07T14:07:58;20.60;84.23
65985;HTU21D;52748;51.112;5.880;2023-05-07T14:10:24;20.59;84.46
65985;HTU21D;52748;51.112;5.880;2023-05-07T14:12:50;20.57;84.56
65985;HTU21D;52748;51.112;5.880;2023-05-07T14:15:16;20.58;84.64
65985;HTU21D;52748;51.112;5.880;2023-05-07T14:17:42;20.59;84.66
65985;HTU21D;52748;51.112;5.880;2023-05-07T14:20:12;20.58;84.72
65985;HTU21D;52748;51.112;5.880;2023-05-07T14:22:38;20.58;84.81
65985;HTU21D;52748;51.112;5.880;2023-05-07T14:25:04;20.60;84.49
65985;HTU21D;52748;51.112;5.880;2023-05-07T14:27:30;20.63;84.26
65985;HTU21D;52748;51.112;5.880;2023-05-07T14:29:56;20.62;84.22
65985;HTU21D;52748;51.112;5.880;2023-05-07T14:32:22;20.60;84.35
65985;HTU21D;52748;51.112;5.880;2023-05-07T14:34:50;20.60;84.45
65985;HTU21D;52748;51.112;5.880;2023-05-07T14:37:16;20.59;84.57
65985;HTU21D;52748;51.112;5.880;2023-05-07T14:39:44;20.58;84.70
65985;HTU21D;52748;51.112;5.880;2023-05-07T14:42:10;20.58;84.77
65985;HTU21D;52748;51.112;5.880;2023-05-07T14:44:37;20.58;84.81
65985;HTU21D;52748;51.112;5.880;2023-05-07T14:47:02;20.63;84.48
65985;HTU21D;52748;51.112;5.880;2023-05-07T14:49:28;20.61;84.47
65985;HTU21D;52748;51.112;5.880;2023-05-07T14:51:57;20.59;84.42
65985;HTU21D;52748;51.112;5.880;2023-05-07T14:54:24;20.59;84.57
65985;HTU21D;52748;51.112;5.880;2023-05-07T14:56:49;20.59;84.66
65985;HTU21D;52748;51.112;5.880;2023-05-07T14:59:15;20.58;84.68
65985;HTU21D;52748;51.112;5.880;2023-05-07T15:01:44;20.59;84.61
65985;HTU21D;52748;51.112;5.880;2023-05-07T15:04:11;20.61;84.68
65985;HTU21D;52748;51.112;5.880;2023-05-07T15:06:36;20.61;84.29
65985;HTU21D;52748;51.112;5.880;2023-05-07T15:09:02;20.60;84.41
65985;HTU21D;52748;51.112;5.880;2023-05-07T15:11:28;20.63;84.20
65985;HTU21D;52748;51.112;5.880;2023-05-07T15:13:54;20.62;84.02
65985;HTU21D;52748;51.112;5.880;2023-05-07T15:16:20;20.62;84.16
65985;HTU21D;52748;51.112;5.880;2023-05-07T15:18:46;20.62;84.18
65985;HTU21D;52748;51.112;5.880;2023-05-07T15:21:13;20.61;84.26
65985;HTU21D;52748;51.112;5.880;2023-05-07T15:23:39;20.60;84.30
65985;HTU21D;52748;51.112;5.880;2023-05-07T15:26:10;20.62;84.32
65985;HTU21D;52748;51.112;5.880;2023-05-07T15:28:36;20.62;84.23
65985;HTU21D;52748;51.112;5.880;2023-05-07T15:31:03;20.61;83.06